Peshawar, Pakistan

7:41 PM PKT on February 09, 2016 (GMT +0500)
Peshawar International | | Change Station
CLOSE
Current Station
Airport
Location: Peshawar,
Elevation: 1181 ft
Nearby Weather Stations

Elev 1181 ft 34.02 °N, 71.58 °E | Updated 41 minutes ago

Haze
Haze
64 °F
Feels Like 64 °F
N
0
Wind Variable Wind from North

Today
High -- | Low -- °F
--% Chance of Precip.
Yesterday
High -- | Low -- °F
Precip. -- in
Pressure 29.95 in
Visibility 0.9 miles
Clouds Scattered Clouds 10000 ft
Scattered Clouds 20000 ft
Dew Point 39 °F
Humidity 40%
Rainfall 0.00 in
Snow Depth Not available.
7:05 AM 5:51 PM
New Moon, 1% visible
METAR OPPS 091400Z 00000KT 1500 HZ SCT100 SCT200 18/04 Q1014
Pressure 29.95 in
Visibility 0.9 miles
Clouds Scattered Clouds 10000 ft
Scattered Clouds 20000 ft
Dew Point 39 °F
Humidity 40%
Rainfall 0.00 in
Snow Depth Not available.
7:05 AM 5:51 PM
New Moon, 1% visible
METAR OPPS 091400Z 00000KT 1500 HZ SCT100 SCT200 18/04 Q1014

10-Day Weather Forecast

No radar image for this location.
×

Almanac

Astronomy

Feb. 09, 2016 Rise Set
Actual Time
Civil Twilight
Nautical Twilight
Astronomical Twilight
Moon
Length of Visible Light
Length of Day
Tomorrow will be .
, % of the Moon is Illuminated

Today's Extremes

Country Highs Country Lows

Community

WunderPhotos

Upload Photos

1,891,614 photos uploaded!

WunderBlog® & News

Nearby

Air Quality

  Air Quality AQ Index Pollutant
Not available.

Snow Depth

Station Depth Elevation

Earthquake Activity

City Distance Mag. Time & Date
Minimum magnitude displayed is 2.5.

Coastal Water Temperatures

Place Temperature

Stations

Nearby Weather Stations

Station Location Temp. Windchill Dew Point Humidity Wind Precip. Elev Updated Type